Time;durP1;ratioP1;P1;durP2;ratioP2;P2;SDS_P1;SDS_P2;PMS_P1;PMS_P2;Temp;Humidity;BMP_temperature;BMP_pressure;BME280_temperature;BME280_humidity;BME280_pressure;Samples;Min_cycle;Max_cycle;Signal;HPM_P1;HPM_P2
2021/10/11 00:00:10;;;;;;;8.27;4.07;;;;;;;;;;5015877;28;20199;-94
2021/10/11 00:02:37;;;;;;;6.10;4.20;;;;;;;;;;5015825;28;20234;-93
2021/10/11 00:05:05;;;;;;;7.23;4.90;;;;;;;;;;5015614;28;20192;-92
2021/10/11 00:07:32;;;;;;;5.17;4.00;;;;;;;;;;5015755;28;20227;-91
2021/10/11 00:10:01;;;;;;;7.93;4.87;;;;;;;;;;5015628;28;20208;-91
2021/10/11 00:12:28;;;;;;;5.30;4.57;;;;;;;;;;5015779;28;20200;-92
2021/10/11 00:14:55;;;;;;;3.77;3.43;;;;;;;;;;5015464;28;20731;-91
2021/10/11 00:17:23;;;;;;;4.60;4.20;;;;;;;;;;5015662;28;20204;-92
2021/10/11 00:19:50;;;;;;;6.37;4.40;;;;;;;;;;5015959;28;20195;-93
2021/10/11 00:22:18;;;;;;;3.90;3.50;;;;;;;;;;5016005;28;20199;-92
2021/10/11 00:24:45;;;;;;;7.57;4.97;;;;;;;;;;5015340;28;20242;-92
2021/10/11 00:27:14;;;;;;;6.67;3.93;;;;;;;;;;5015498;28;20227;-93
2021/10/11 00:29:41;;;;;;;5.53;4.20;;;;;;;;;;5015630;28;20586;-92
2021/10/11 00:32:09;;;;;;;4.27;3.60;;;;;;;;;;5015240;28;20203;-94
2021/10/11 00:34:36;;;;;;;4.40;4.00;;;;;;;;;;5015537;28;20206;-93
2021/10/11 00:37:04;;;;;;;6.30;4.13;;;;;;;;;;5015250;28;20203;-93
2021/10/11 00:39:31;;;;;;;6.43;3.50;;;;;;;;;;5015180;28;20196;-91
2021/10/11 00:41:58;;;;;;;4.90;4.07;;;;;;;;;;5014937;28;20203;-92
2021/10/11 00:44:27;;;;;;;7.13;3.30;;;;;;;;;;5015199;28;20208;-93
2021/10/11 00:46:54;;;;;;;6.80;4.77;;;;;;;;;;5015204;28;20199;-92
2021/10/11 00:49:21;;;;;;;4.43;3.70;;;;;;;;;;5015426;28;20226;-92
2021/10/11 00:51:49;;;;;;;4.70;3.77;;;;;;;;;;5015168;28;20205;-92
2021/10/11 00:54:16;;;;;;;4.53;4.10;;;;;;;;;;5015289;28;20195;-92
2021/10/11 00:56:43;;;;;;;5.03;3.77;;;;;;;;;;5014779;28;20187;-93
2021/10/11 00:59:10;;;;;;;5.83;3.87;;;;;;;;;;5014787;28;20198;-92
2021/10/11 01:01:39;;;;;;;7.27;4.13;;;;;;;;;;5015049;28;20203;-94
2021/10/11 01:04:06;;;;;;;6.33;3.80;;;;;;;;;;5014673;28;20242;-92
2021/10/11 01:09:53;;;;;;;4.67;3.47;;;;;;;;;;5260049;22;20229;-94
2021/10/11 01:12:20;;;;;;;3.73;3.30;;;;;;;;;;5054001;28;20186;-92
2021/10/11 01:14:47;;;;;;;5.33;3.70;;;;;;;;;;5054439;28;20281;-93
2021/10/11 01:17:16;;;;;;;4.23;3.37;;;;;;;;;;5308111;22;20327;-93
2021/10/11 01:19:48;;;;;;;4.67;3.87;;;;;;;;;;4995145;28;20208;-93
2021/10/11 01:22:17;;;;;;;3.80;3.50;;;;;;;;;;4995072;28;20192;-93
2021/10/11 01:24:44;;;;;;;4.30;3.77;;;;;;;;;;4977746;28;20216;-93
2021/10/11 01:27:12;;;;;;;8.23;4.30;;;;;;;;;;4994592;28;20222;-94
2021/10/11 01:29:39;;;;;;;7.20;3.93;;;;;;;;;;4994675;28;20210;-93
2021/10/11 01:32:07;;;;;;;7.23;3.63;;;;;;;;;;4995007;28;20578;-92
2021/10/11 01:34:34;;;;;;;7.00;4.17;;;;;;;;;;4994730;28;20200;-93
2021/10/11 01:37:02;;;;;;;4.00;3.23;;;;;;;;;;4994724;28;20207;-92
2021/10/11 01:39:30;;;;;;;12.47;3.43;;;;;;;;;;4994506;28;20656;-93
2021/10/11 01:41:59;;;;;;;6.37;3.53;;;;;;;;;;4994616;28;20994;-95
2021/10/11 01:44:26;;;;;;;3.67;3.20;;;;;;;;;;4994512;28;20196;-93
2021/10/11 01:46:53;;;;;;;4.87;3.60;;;;;;;;;;4994897;28;20795;-92
2021/10/11 01:49:20;;;;;;;5.27;3.23;;;;;;;;;;4994371;28;20228;-92
2021/10/11 01:51:48;;;;;;;9.03;2.87;;;;;;;;;;4994471;28;20737;-93
2021/10/11 01:54:15;;;;;;;7.90;4.27;;;;;;;;;;4994381;28;20192;-92
2021/10/11 01:56:44;;;;;;;6.33;3.37;;;;;;;;;;4994258;28;20215;-92
2021/10/11 01:59:11;;;;;;;5.43;3.70;;;;;;;;;;4994166;28;20200;-93
2021/10/11 02:01:38;;;;;;;5.27;4.00;;;;;;;;;;4994445;28;20227;-92
2021/10/11 02:04:05;;;;;;;5.67;4.27;;;;;;;;;;4994190;28;20691;-92
2021/10/11 02:06:33;;;;;;;6.23;3.57;;;;;;;;;;4994046;28;20283;-93
2021/10/11 02:09:00;;;;;;;6.60;3.03;;;;;;;;;;4994213;28;20695;-92
2021/10/11 02:11:29;;;;;;;4.63;3.30;;;;;;;;;;4994301;28;20668;-91
2021/10/11 02:13:57;;;;;;;7.03;3.27;;;;;;;;;;4993711;28;20205;-93
2021/10/11 02:16:25;;;;;;;9.47;3.70;;;;;;;;;;4993638;28;20668;-92
2021/10/11 02:18:52;;;;;;;4.77;3.37;;;;;;;;;;4993988;28;20735;-93
2021/10/11 02:21:19;;;;;;;6.83;2.97;;;;;;;;;;4994160;28;20577;-93
2021/10/11 02:23:46;;;;;;;3.70;3.27;;;;;;;;;;4993747;28;20286;-94
2021/10/11 02:26:14;;;;;;;3.50;2.80;;;;;;;;;;4993959;28;20734;-91
2021/10/11 02:28:41;;;;;;;3.60;2.70;;;;;;;;;;4993945;28;20310;-93
2021/10/11 02:31:10;;;;;;;4.60;3.03;;;;;;;;;;4993595;28;20204;-94
2021/10/11 02:33:37;;;;;;;8.77;3.40;;;;;;;;;;4993826;28;20196;-94
2021/10/11 02:36:05;;;;;;;8.20;3.63;;;;;;;;;;4993836;28;20624;-92
2021/10/11 02:38:32;;;;;;;9.37;3.43;;;;;;;;;;4993832;28;20196;-92
2021/10/11 02:40:59;;;;;;;5.93;3.53;;;;;;;;;;4993757;28;20195;-94
2021/10/11 02:43:26;;;;;;;6.87;3.57;;;;;;;;;;4993664;28;20284;-92
2021/10/11 02:45:54;;;;;;;4.03;2.87;;;;;;;;;;4993426;28;20206;-92
2021/10/11 02:48:22;;;;;;;6.20;3.17;;;;;;;;;;4993558;28;20628;-93
2021/10/11 02:50:50;;;;;;;4.87;3.20;;;;;;;;;;4993430;28;20203;-93
2021/10/11 02:53:17;;;;;;;8.50;3.17;;;;;;;;;;4993464;28;20196;-93
2021/10/11 02:55:44;;;;;;;3.27;2.43;;;;;;;;;;4994012;28;20204;-91
2021/10/11 02:58:11;;;;;;;7.57;3.47;;;;;;;;;;4993386;28;20197;-95
2021/10/11 03:00:39;;;;;;;4.80;3.47;;;;;;;;;;4993664;28;20287;-92
2021/10/11 03:03:06;;;;;;;5.00;2.90;;;;;;;;;;4993606;28;20592;-93
2021/10/11 03:05:34;;;;;;;6.90;3.27;;;;;;;;;;4993655;28;20584;-92
2021/10/11 03:08:02;;;;;;;8.60;3.53;;;;;;;;;;4993488;28;20204;-92
2021/10/11 03:10:29;;;;;;;6.93;3.80;;;;;;;;;;4993551;28;20197;-92
2021/10/11 03:12:56;;;;;;;11.33;4.03;;;;;;;;;;4993185;28;20219;-92
2021/10/11 03:15:23;;;;;;;5.40;4.80;;;;;;;;;;5283389;22;20587;-90
2021/10/11 03:17:51;;;;;;;5.03;2.80;;;;;;;;;;5012797;28;20207;-91
2021/10/11 03:20:18;;;;;;;3.30;2.40;;;;;;;;;;5012940;28;20259;-91
2021/10/11 03:22:47;;;;;;;3.80;3.20;;;;;;;;;;5012786;28;20224;-90
2021/10/11 03:25:14;;;;;;;2.70;2.47;;;;;;;;;;5012993;28;20562;-92
2021/10/11 03:27:41;;;;;;;3.83;2.83;;;;;;;;;;5016016;28;20297;-91
2021/10/11 03:30:09;;;;;;;3.40;3.10;;;;;;;;;;5016348;28;20239;-90
2021/10/11 03:32:36;;;;;;;4.67;3.10;;;;;;;;;;5016083;28;20202;-90
2021/10/11 03:35:04;;;;;;;6.43;3.10;;;;;;;;;;5016307;28;20203;-90
2021/10/11 03:37:31;;;;;;;6.23;3.87;;;;;;;;;;5016428;28;20197;-92
2021/10/11 03:40:00;;;;;;;3.37;2.80;;;;;;;;;;5016345;28;20195;-91
2021/10/11 03:42:27;;;;;;;6.20;3.30;;;;;;;;;;5016378;28;20203;-91
2021/10/11 03:44:54;;;;;;;5.03;2.87;;;;;;;;;;5016103;28;20238;-91
2021/10/11 03:47:21;;;;;;;4.77;4.07;;;;;;;;;;5015773;28;20212;-92
2021/10/11 03:49:48;;;;;;;6.13;3.40;;;;;;;;;;5015976;28;20254;-91
2021/10/11 03:52:16;;;;;;;8.90;6.10;;;;;;;;;;5016032;28;20235;-92
2021/10/11 03:54:43;;;;;;;4.87;2.80;;;;;;;;;;5016162;28;20278;-91
2021/10/11 03:57:12;;;;;;;8.67;3.10;;;;;;;;;;5015896;28;20575;-92
2021/10/11 03:59:39;;;;;;;4.13;3.73;;;;;;;;;;5010228;28;20203;-90
2021/10/11 04:02:06;;;;;;;4.90;3.23;;;;;;;;;;5007805;28;20206;-90
2021/10/11 04:04:34;;;;;;;5.20;2.97;;;;;;;;;;4998069;28;20197;-92
2021/10/11 04:07:06;;;;;;;4.53;3.53;;;;;;;;;;4996358;28;20196;-91
2021/10/11 04:09:33;;;;;;;6.43;4.20;;;;;;;;;;4996209;28;20215;-89
2021/10/11 04:12:06;;;;;;;5.63;3.10;;;;;;;;;;4996341;28;20275;-93
2021/10/11 04:14:35;;;;;;;4.53;3.37;;;;;;;;;;5001777;28;20222;-91
2021/10/11 04:17:03;;;;;;;4.70;3.50;;;;;;;;;;5035461;28;20233;-94
2021/10/11 04:22:17;;;;;;;5.40;2.90;;;;;;;;;;5033776;28;20206;-91
2021/10/11 04:24:45;;;;;;;2.70;2.50;;;;;;;;;;5035170;28;20194;-90
2021/10/11 04:27:12;;;;;;;6.30;3.73;;;;;;;;;;5035139;28;20226;-89
2021/10/11 04:29:40;;;;;;;5.43;4.23;;;;;;;;;;5035258;28;20222;-89
2021/10/11 04:32:08;;;;;;;8.03;4.70;;;;;;;;;;5035063;28;20209;-90
2021/10/11 04:34:35;;;;;;;5.83;3.37;;;;;;;;;;5035337;28;20195;-90
2021/10/11 04:37:02;;;;;;;8.47;4.53;;;;;;;;;;5034739;28;20199;-91
2021/10/11 04:39:30;;;;;;;5.07;3.33;;;;;;;;;;5035197;28;20198;-91
2021/10/11 04:41:57;;;;;;;5.37;3.23;;;;;;;;;;5035245;28;20198;-90
2021/10/11 04:44:24;;;;;;;4.20;3.00;;;;;;;;;;5034664;28;20202;-93
2021/10/11 04:46:53;;;;;;;9.17;3.67;;;;;;;;;;5034716;28;20729;-91
2021/10/11 04:49:20;;;;;;;3.83;3.13;;;;;;;;;;5034595;28;20229;-91
2021/10/11 04:51:47;;;;;;;3.63;2.77;;;;;;;;;;5034957;28;20221;-90
2021/10/11 04:54:14;;;;;;;9.50;8.40;;;;;;;;;;5035411;28;20229;-90
2021/10/11 04:56:42;;;;;;;5.90;4.33;;;;;;;;;;5034822;28;20199;-91
2021/10/11 04:59:09;;;;;;;7.20;3.60;;;;;;;;;;5034955;28;20690;-90
2021/10/11 05:01:36;;;;;;;3.87;3.20;;;;;;;;;;5034584;28;20230;-90
2021/10/11 05:04:05;;;;;;;3.13;2.93;;;;;;;;;;5034666;28;20198;-90
2021/10/11 05:06:33;;;;;;;5.03;4.03;;;;;;;;;;5034489;28;20199;-91
2021/10/11 05:09:01;;;;;;;5.43;4.20;;;;;;;;;;5034549;28;20233;-90
2021/10/11 05:11:29;;;;;;;5.63;3.03;;;;;;;;;;5034701;28;20253;-91
2021/10/11 05:13:57;;;;;;;5.00;3.13;;;;;;;;;;5034473;28;20233;-90
2021/10/11 05:16:26;;;;;;;7.60;6.80;;;;;;;;;;5034493;28;20631;-90
2021/10/11 05:18:53;;;;;;;6.87;3.87;;;;;;;;;;5034237;28;20273;-91
2021/10/11 05:21:22;;;;;;;5.07;3.80;;;;;;;;;;5034158;28;20202;-92
2021/10/11 05:23:49;;;;;;;4.07;3.53;;;;;;;;;;5031212;28;20249;-91
2021/10/11 05:26:16;;;;;;;5.67;3.27;;;;;;;;;;5010917;28;20734;-91
2021/10/11 05:28:43;;;;;;;5.33;4.43;;;;;;;;;;5014185;28;20207;-91
2021/10/11 05:31:11;;;;;;;4.57;4.20;;;;;;;;;;5014165;28;20200;-91
2021/10/11 05:33:38;;;;;;;5.37;4.50;;;;;;;;;;5014208;28;20229;-92
2021/10/11 05:36:05;;;;;;;4.70;2.77;;;;;;;;;;5014334;28;20221;-90
2021/10/11 05:38:35;;;;;;;4.03;3.30;;;;;;;;;;5014726;28;20667;-92
2021/10/11 05:41:02;;;;;;;3.87;3.57;;;;;;;;;;5014580;28;20203;-92
2021/10/11 05:43:29;;;;;;;7.13;5.23;;;;;;;;;;5014355;28;20218;-92
2021/10/11 05:45:56;;;;;;;4.43;3.07;;;;;;;;;;5014233;28;20199;-94
2021/10/11 05:48:23;;;;;;;4.80;4.00;;;;;;;;;;5013574;28;20208;-95
2021/10/11 05:50:50;;;;;;;5.43;3.60;;;;;;;;;;5014062;28;20310;-93
2021/10/11 05:53:17;;;;;;;3.83;3.13;;;;;;;;;;5013977;28;20208;-94
2021/10/11 05:55:46;;;;;;;6.67;3.90;;;;;;;;;;5014094;28;20199;-94
2021/10/11 05:58:13;;;;;;;5.43;3.93;;;;;;;;;;5014128;28;20203;-93
2021/10/11 06:00:40;;;;;;;5.50;3.40;;;;;;;;;;5014197;28;20208;-94
2021/10/11 06:03:09;;;;;;;6.90;2.97;;;;;;;;;;5013941;28;20222;-93
2021/10/11 06:05:36;;;;;;;5.30;3.30;;;;;;;;;;5014166;28;20207;-91
2021/10/11 06:08:03;;;;;;;4.03;3.13;;;;;;;;;;5014163;28;20199;-91
2021/10/11 06:10:31;;;;;;;2.63;2.43;;;;;;;;;;5014439;28;20223;-93
2021/10/11 06:12:59;;;;;;;4.33;3.93;;;;;;;;;;5014491;28;20218;-93
2021/10/11 06:15:26;;;;;;;3.10;2.90;;;;;;;;;;5013529;28;20711;-94
2021/10/11 06:17:54;;;;;;;4.20;3.57;;;;;;;;;;5014012;28;20206;-93
2021/10/11 06:20:21;;;;;;;3.93;2.50;;;;;;;;;;5013637;28;20221;-94
2021/10/11 06:22:48;;;;;;;7.10;3.17;;;;;;;;;;5013369;28;20203;-95
2021/10/11 06:25:15;;;;;;;6.37;3.30;;;;;;;;;;5013677;28;20223;-94
2021/10/11 06:27:42;;;;;;;4.97;3.57;;;;;;;;;;5013723;28;20191;-95
2021/10/11 06:30:12;;;;;;;6.53;3.90;;;;;;;;;;5014382;28;20717;-94
2021/10/11 06:32:39;;;;;;;4.27;3.07;;;;;;;;;;5013285;28;20202;-93
2021/10/11 06:35:08;;;;;;;5.60;3.20;;;;;;;;;;5013492;28;20199;-93
2021/10/11 06:37:35;;;;;;;4.97;3.40;;;;;;;;;;5013157;28;20207;-93
2021/10/11 06:40:02;;;;;;;3.30;2.73;;;;;;;;;;5013659;28;20254;-92
2021/10/11 06:42:29;;;;;;;3.87;3.30;;;;;;;;;;5013906;28;20254;-94
2021/10/11 06:44:56;;;;;;;3.70;2.40;;;;;;;;;;5013809;28;20200;-95
2021/10/11 06:47:25;;;;;;;3.10;2.73;;;;;;;;;;5009899;28;20222;-95
2021/10/11 06:49:52;;;;;;;2.93;2.63;;;;;;;;;;5016258;28;20696;-95
2021/10/11 06:52:19;;;;;;;2.80;2.43;;;;;;;;;;5014015;28;20668;-95
2021/10/11 06:54:47;;;;;;;4.57;2.30;;;;;;;;;;5013631;28;20592;-94
2021/10/11 06:57:14;;;;;;;2.87;2.47;;;;;;;;;;5013704;28;20206;-94
2021/10/11 06:59:42;;;;;;;3.40;2.20;;;;;;;;;;5013472;28;20199;-96
2021/10/11 07:02:09;;;;;;;4.77;2.47;;;;;;;;;;5020992;28;20192;-95
2021/10/11 07:04:38;;;;;;;3.00;2.67;;;;;;;;;;5019442;28;20258;-93
2021/10/11 07:07:07;;;;;;;4.73;2.47;;;;;;;;;;5018059;28;20628;-96
2021/10/11 07:09:35;;;;;;;16.30;15.20;;;;;;;;;;5017446;28;20226;-95
2021/10/11 07:12:02;;;;;;;4.13;2.87;;;;;;;;;;5019583;28;20213;-93
2021/10/11 07:14:29;;;;;;;3.07;2.57;;;;;;;;;;5019063;28;20239;-96
2021/10/11 07:16:56;;;;;;;3.80;3.37;;;;;;;;;;5018256;28;20208;-95
2021/10/11 07:19:26;;;;;;;3.93;2.80;;;;;;;;;;5016743;28;20199;-95
2021/10/11 07:21:55;;;;;;;3.50;3.07;;;;;;;;;;5017668;28;20203;-93
2021/10/11 07:24:22;;;;;;;4.50;3.87;;;;;;;;;;5016882;28;20191;-94
2021/10/11 07:26:49;;;;;;;4.70;4.30;;;;;;;;;;5017045;28;20192;-95
2021/10/11 07:29:16;;;;;;;4.17;3.30;;;;;;;;;;5019409;28;20200;-96
2021/10/11 07:31:44;;;;;;;5.00;4.60;;;;;;;;;;5017699;28;20200;-94
2021/10/11 07:34:11;;;;;;;4.03;3.30;;;;;;;;;;5018138;28;20199;-95
2021/10/11 07:36:38;;;;;;;4.33;3.37;;;;;;;;;;5017223;28;20206;-95
2021/10/11 07:39:07;;;;;;;3.93;2.97;;;;;;;;;;5016864;28;20195;-94
2021/10/11 07:41:34;;;;;;;3.80;2.70;;;;;;;;;;5019585;28;20183;-96
2021/10/11 07:44:01;;;;;;;2.70;2.50;;;;;;;;;;5017603;28;20207;-94
2021/10/11 07:46:28;;;;;;;3.87;2.40;;;;;;;;;;5017019;28;20214;-95
2021/10/11 07:48:55;;;;;;;4.23;2.47;;;;;;;;;;5016268;28;20219;-96
2021/10/11 07:51:23;;;;;;;1.90;1.80;;;;;;;;;;5017200;28;20699;-96
2021/10/11 07:53:50;;;;;;;2.63;2.20;;;;;;;;;;5017179;28;20209;-96
2021/10/11 07:56:18;;;;;;;2.20;1.70;;;;;;;;;;5016908;28;20199;-95
2021/10/11 07:58:46;;;;;;;1.90;1.80;;;;;;;;;;5017169;28;20203;-96
2021/10/11 08:01:13;;;;;;;3.37;1.67;;;;;;;;;;5017245;28;20210;-96
2021/10/11 08:03:40;;;;;;;2.03;1.70;;;;;;;;;;5017200;28;20279;-95
2021/10/11 08:06:07;;;;;;;1.90;1.80;;;;;;;;;;5016000;28;20196;-96
2021/10/11 08:08:35;;;;;;;1.67;1.57;;;;;;;;;;5016935;28;20200;-93
2021/10/11 08:11:03;;;;;;;2.03;1.83;;;;;;;;;;5015913;28;20223;-95
2021/10/11 08:13:35;;;;;;;4.83;4.43;;;;;;;;;;5016044;28;20188;-96
2021/10/11 08:16:03;;;;;;;2.43;2.23;;;;;;;;;;5023803;28;20330;-95
2021/10/11 08:18:31;;;;;;;1.60;1.50;;;;;;;;;;5021565;28;20253;-95
2021/10/11 08:20:58;;;;;;;1.50;1.40;;;;;;;;;;5015961;28;20218;-94
2021/10/11 08:23:26;;;;;;;2.23;1.80;;;;;;;;;;5016061;28;20203;-94
2021/10/11 08:25:53;;;;;;;2.50;2.30;;;;;;;;;;5016140;28;20261;-94
2021/10/11 08:28:20;;;;;;;2.13;1.60;;;;;;;;;;5015538;28;20213;-95
2021/10/11 08:30:50;;;;;;;2.57;2.03;;;;;;;;;;5015940;28;20227;-94
2021/10/11 08:33:17;;;;;;;6.07;5.60;;;;;;;;;;5016200;28;20648;-93
2021/10/11 08:35:45;;;;;;;1.70;1.60;;;;;;;;;;5016399;28;20660;-92
2021/10/11 08:38:12;;;;;;;3.30;3.03;;;;;;;;;;5015720;28;20257;-94
2021/10/11 08:40:40;;;;;;;3.20;2.17;;;;;;;;;;5016083;28;20749;-94
2021/10/11 08:43:07;;;;;;;3.10;2.77;;;;;;;;;;5015213;28;20199;-93
2021/10/11 08:45:34;;;;;;;2.00;1.80;;;;;;;;;;5015521;28;20577;-94
2021/10/11 08:48:03;;;;;;;1.33;1.23;;;;;;;;;;5015375;28;20210;-95
2021/10/11 08:50:30;;;;;;;2.53;2.07;;;;;;;;;;5015004;28;20234;-93
2021/10/11 08:52:59;;;;;;;2.00;1.80;;;;;;;;;;5015189;28;20199;-93
2021/10/11 08:55:26;;;;;;;1.93;1.50;;;;;;;;;;5014899;28;20246;-94
2021/10/11 08:58:01;;;;;;;1.97;1.50;;;;;;;;;;5015044;28;20202;-94
2021/10/11 09:00:33;;;;;;;1.20;1.20;;;;;;;;;;5015728;28;20191;-94
2021/10/11 09:03:02;;;;;;;2.37;2.17;;;;;;;;;;5015896;28;20206;-95
2021/10/11 09:05:33;;;;;;;2.90;2.70;;;;;;;;;;5014863;28;20199;-92
2021/10/11 09:08:01;;;;;;;2.33;2.23;;;;;;;;;;5015964;28;20191;-94
2021/10/11 09:10:29;;;;;;;6.37;5.77;;;;;;;;;;5017826;28;20250;-95
2021/10/11 09:12:57;;;;;;;5.03;4.50;;;;;;;;;;5015960;28;20192;-95
2021/10/11 09:15:27;;;;;;;5.87;5.37;;;;;;;;;;5014598;28;20239;-95
2021/10/11 09:17:58;;;;;;;3.77;3.57;;;;;;;;;;5015772;28;20192;-94
2021/10/11 09:20:28;;;;;;;3.33;3.13;;;;;;;;;;5017469;28;20191;-95
2021/10/11 09:22:57;;;;;;;6.37;5.87;;;;;;;;;;5016304;28;20279;-95
2021/10/11 09:25:34;;;;;;;2.73;2.47;;;;;;;;;;5014931;28;20258;-93
2021/10/11 09:28:03;;;;;;;1.80;1.70;;;;;;;;;;5015489;28;20644;-93
2021/10/11 09:30:32;;;;;;;2.20;2.10;;;;;;;;;;5015969;28;20227;-95
2021/10/11 09:33:07;;;;;;;12.83;11.67;;;;;;;;;;5015457;28;20382;-95
2021/10/11 09:35:36;;;;;;;2.80;2.60;;;;;;;;;;5015312;28;20195;-92
2021/10/11 09:38:03;;;;;;;4.13;3.83;;;;;;;;;;5014784;28;20676;-94
2021/10/11 09:40:43;;;;;;;6.23;5.27;;;;;;;;;;5015218;28;20199;-93
2021/10/11 09:43:15;;;;;;;3.30;3.00;;;;;;;;;;5016263;28;20674;-94
2021/10/11 09:45:42;;;;;;;2.50;2.30;;;;;;;;;;5014582;28;20286;-95
2021/10/11 09:48:10;;;;;;;12.43;9.77;;;;;;;;;;5015171;28;20230;-94
2021/10/11 09:50:40;;;;;;;3.30;3.00;;;;;;;;;;5015118;28;20603;-94
2021/10/11 09:53:08;;;;;;;2.37;2.07;;;;;;;;;;5014778;28;20209;-94
2021/10/11 09:55:37;;;;;;;2.53;2.33;;;;;;;;;;5015456;28;20568;-93
2021/10/11 09:58:04;;;;;;;2.33;2.13;;;;;;;;;;5014215;28;20265;-93
2021/10/11 10:00:32;;;;;;;2.47;2.27;;;;;;;;;;5014508;28;20279;-95
2021/10/11 10:02:59;;;;;;;2.80;2.60;;;;;;;;;;5014258;28;20657;-94
2021/10/11 10:05:32;;;;;;;2.70;2.50;;;;;;;;;;5014168;28;20206;-93
2021/10/11 10:08:04;;;;;;;3.27;2.70;;;;;;;;;;5014411;28;20744;-94
2021/10/11 10:10:32;;;;;;;2.00;1.90;;;;;;;;;;5016056;28;20227;-94
2021/10/11 10:12:59;;;;;;;1.90;1.80;;;;;;;;;;5014857;28;20195;-94
2021/10/11 10:15:32;;;;;;;2.40;2.20;;;;;;;;;;5014345;28;20227;-92
2021/10/11 10:18:05;;;;;;;2.00;1.80;;;;;;;;;;5015220;28;20617;-95
2021/10/11 10:20:32;;;;;;;2.33;2.20;;;;;;;;;;5014850;28;20579;-94
2021/10/11 10:23:01;;;;;;;2.20;2.00;;;;;;;;;;5014704;28;20210;-93
2021/10/11 10:25:28;;;;;;;1.70;1.60;;;;;;;;;;5014476;28;20668;-94
2021/10/11 10:28:10;;;;;;;1.87;1.70;;;;;;;;;;5013735;28;20199;-93
2021/10/11 10:30:37;;;;;;;4.70;2.07;;;;;;;;;;5013699;28;20222;-94
2021/10/11 10:33:07;;;;;;;2.73;2.53;;;;;;;;;;5013905;28;20278;-95
2021/10/11 10:35:38;;;;;;;3.87;3.57;;;;;;;;;;5013381;28;20207;-93
2021/10/11 10:38:17;;;;;;;3.70;3.40;;;;;;;;;;5014193;28;20573;-93
2021/10/11 10:40:45;;;;;;;6.13;5.63;;;;;;;;;;5013816;28;20202;-92
2021/10/11 10:43:15;;;;;;;6.90;6.20;;;;;;;;;;5013801;28;20209;-93
2021/10/11 10:45:44;;;;;;;7.77;7.07;;;;;;;;;;5013902;28;20188;-93
2021/10/11 10:48:19;;;;;;;11.03;10.03;;;;;;;;;;5013877;28;20203;-94
2021/10/11 10:50:47;;;;;;;11.97;10.87;;;;;;;;;;5013201;28;20222;-94
2021/10/11 10:53:14;;;;;;;3.63;2.97;;;;;;;;;;5014507;28;20642;-95
2021/10/11 10:55:43;;;;;;;2.20;1.93;;;;;;;;;;5013876;28;20191;-93
2021/10/11 10:58:13;;;;;;;3.50;3.20;;;;;;;;;;5014390;28;20199;-95
2021/10/11 11:00:40;;;;;;;2.80;2.60;;;;;;;;;;5015133;28;20293;-94
2021/10/11 11:03:10;;;;;;;3.77;2.33;;;;;;;;;;5014236;28;20206;-93
2021/10/11 11:05:38;;;;;;;2.00;1.90;;;;;;;;;;5013048;28;20676;-95
2021/10/11 11:08:06;;;;;;;1.90;1.80;;;;;;;;;;5014366;28;20199;-94
2021/10/11 11:10:35;;;;;;;1.70;1.60;;;;;;;;;;5013647;28;20211;-95
2021/10/11 11:13:07;;;;;;;1.80;1.70;;;;;;;;;;5014615;28;20199;-95
2021/10/11 11:15:35;;;;;;;2.33;2.13;;;;;;;;;;5015937;28;20293;-95
2021/10/11 11:18:04;;;;;;;2.00;1.90;;;;;;;;;;5018321;28;20214;-95
2021/10/11 11:20:33;;;;;;;3.43;3.13;;;;;;;;;;5017384;28;20680;-95
2021/10/11 11:23:02;;;;;;;3.00;2.80;;;;;;;;;;5013984;28;20203;-92
2021/10/11 11:25:32;;;;;;;2.37;2.17;;;;;;;;;;5013140;28;20200;-95
2021/10/11 11:28:00;;;;;;;2.03;1.83;;;;;;;;;;5015003;28;20628;-94
2021/10/11 11:30:31;;;;;;;1.40;1.30;;;;;;;;;;5014049;28;20211;-94
2021/10/11 11:36:11;;;;;;;2.27;2.07;;;;;;;;;;5014036;28;20588;-96
2021/10/11 11:38:57;;;;;;;2.60;1.40;;;;;;;;;;5013638;28;20612;-95
2021/10/11 11:54:33;;;;;;;1.60;1.50;;;;;;;;;;4957057;29;20177;-94
2021/10/11 11:57:08;;;;;;;1.63;1.53;;;;;;;;;;4958479;29;20217;-96
2021/10/11 11:59:44;;;;;;;1.80;1.70;;;;;;;;;;4957261;29;20652;-95
2021/10/11 12:02:14;;;;;;;1.10;1.10;;;;;;;;;;4941434;29;20288;-95
2021/10/11 12:10:09;;;;;;;1.93;1.80;;;;;;;;;;4956422;28;20273;-95
2021/10/11 12:12:42;;;;;;;1.77;1.60;;;;;;;;;;4958456;29;20222;-95
2021/10/11 12:15:32;;;;;;;2.53;1.80;;;;;;;;;;4956244;29;20718;-94
2021/10/11 12:41:45;;;;;;;1.83;1.50;;;;;;;;;;4935401;29;20237;-96
2021/10/11 12:51:00;;;;;;;1.30;1.20;;;;;;;;;;4929629;29;20248;-96
2021/10/11 12:56:57;;;;;;;2.17;2.07;;;;;;;;;;4918248;29;20245;-94
2021/10/11 13:00:19;;;;;;;1.93;1.83;;;;;;;;;;4952167;28;20220;-93
2021/10/11 13:02:48;;;;;;;1.20;1.10;;;;;;;;;;4976472;28;20198;-96
2021/10/11 13:05:16;;;;;;;1.40;1.30;;;;;;;;;;4980911;28;20204;-95
2021/10/11 13:07:43;;;;;;;1.97;1.60;;;;;;;;;;4995373;28;20199;-94
2021/10/11 13:10:13;;;;;;;1.60;1.47;;;;;;;;;;4996712;28;20744;-94
2021/10/11 13:12:41;;;;;;;1.40;1.30;;;;;;;;;;4994391;28;20232;-93
2021/10/11 13:15:10;;;;;;;1.67;1.57;;;;;;;;;;4993979;28;20239;-95
2021/10/11 13:17:38;;;;;;;1.50;1.40;;;;;;;;;;4994041;28;20200;-96
2021/10/11 13:20:09;;;;;;;1.30;1.20;;;;;;;;;;4994302;28;20287;-93
2021/10/11 13:22:36;;;;;;;1.40;1.30;;;;;;;;;;4994443;28;20279;-94
2021/10/11 13:25:05;;;;;;;2.70;2.50;;;;;;;;;;4994262;28;20200;-94
2021/10/11 13:27:32;;;;;;;2.90;2.70;;;;;;;;;;5004836;28;20210;-93
2021/10/11 13:30:28;;;;;;;2.73;2.53;;;;;;;;;;5014930;28;20195;-93
2021/10/11 14:28:06;;;;;;;6.13;4.93;;;;;;;;;;5013707;28;20671;-95
2021/10/11 14:30:43;;;;;;;6.80;5.63;;;;;;;;;;5013640;28;20200;-93
2021/10/11 15:58:32;;;;;;;7.07;6.17;;;;;;;;;;4959528;28;20622;-95
2021/10/11 16:01:04;;;;;;;9.60;8.27;;;;;;;;;;4997208;28;20206;-94
2021/10/11 16:06:13;;;;;;;15.87;14.37;;;;;;;;;;4995496;28;20196;-94
2021/10/11 16:08:41;;;;;;;9.47;8.57;;;;;;;;;;4996370;28;20208;-94
2021/10/11 16:11:08;;;;;;;6.30;5.70;;;;;;;;;;4996807;28;20205;-95
2021/10/11 16:13:35;;;;;;;6.27;5.70;;;;;;;;;;4996487;28;20200;-95
2021/10/11 16:16:03;;;;;;;5.87;5.47;;;;;;;;;;4996378;28;20299;-96
2021/10/11 16:18:31;;;;;;;4.60;4.20;;;;;;;;;;4997393;28;20207;-94
2021/10/11 16:21:01;;;;;;;4.87;4.47;;;;;;;;;;4996453;28;20200;-93
2021/10/11 16:23:28;;;;;;;3.60;3.30;;;;;;;;;;4996586;28;20193;-93
2021/10/11 16:25:56;;;;;;;3.73;3.43;;;;;;;;;;4996492;28;20207;-94
2021/10/11 16:28:24;;;;;;;3.47;3.10;;;;;;;;;;4996450;28;20197;-94
2021/10/11 16:30:51;;;;;;;4.73;4.33;;;;;;;;;;4996271;28;20743;-94
2021/10/11 16:33:19;;;;;;;4.87;4.00;;;;;;;;;;4995663;28;20700;-95
2021/10/11 16:35:46;;;;;;;4.80;4.40;;;;;;;;;;4996214;28;20196;-94
2021/10/11 16:38:15;;;;;;;5.50;5.00;;;;;;;;;;4995906;28;20218;-94
2021/10/11 16:40:42;;;;;;;5.63;5.23;;;;;;;;;;4996078;28;20567;-94
2021/10/11 16:43:10;;;;;;;5.70;5.30;;;;;;;;;;4995780;28;20206;-93
2021/10/11 16:45:37;;;;;;;4.70;4.30;;;;;;;;;;4995648;28;20315;-94
2021/10/11 16:48:06;;;;;;;3.83;3.53;;;;;;;;;;4995640;28;20201;-94
2021/10/11 16:50:33;;;;;;;3.70;3.40;;;;;;;;;;4995643;28;20204;-95
2021/10/11 16:53:00;;;;;;;3.77;3.47;;;;;;;;;;4995530;28;20678;-95
2021/10/11 16:55:29;;;;;;;2.90;2.70;;;;;;;;;;4995763;28;20192;-93
2021/10/11 16:57:56;;;;;;;4.17;3.87;;;;;;;;;;4995505;28;20205;-92
2021/10/11 17:00:24;;;;;;;2.97;2.77;;;;;;;;;;4995710;28;20203;-95
2021/10/11 17:02:51;;;;;;;4.00;3.60;;;;;;;;;;4995487;28;20220;-93
2021/10/11 17:05:19;;;;;;;3.80;3.40;;;;;;;;;;4995512;28;20196;-94
2021/10/11 17:07:50;;;;;;;4.30;3.80;;;;;;;;;;4995261;28;20224;-93
2021/10/11 17:10:18;;;;;;;5.60;4.30;;;;;;;;;;4995554;28;20191;-93
2021/10/11 17:12:47;;;;;;;4.53;4.10;;;;;;;;;;4995532;28;20697;-94
2021/10/11 17:15:15;;;;;;;8.37;5.67;;;;;;;;;;4994894;28;20232;-93
2021/10/11 17:17:42;;;;;;;4.80;3.90;;;;;;;;;;4995342;28;20644;-94
2021/10/11 17:20:10;;;;;;;5.23;3.93;;;;;;;;;;4995515;28;20219;-96
2021/10/11 17:22:38;;;;;;;4.80;4.07;;;;;;;;;;4995123;28;20203;-93
2021/10/11 17:25:06;;;;;;;5.73;5.23;;;;;;;;;;4995156;28;20211;-93
2021/10/11 17:27:33;;;;;;;3.83;3.50;;;;;;;;;;4994895;28;20210;-93
2021/10/11 17:30:02;;;;;;;4.50;4.20;;;;;;;;;;4994896;28;20283;-94
2021/10/11 17:32:29;;;;;;;4.00;3.70;;;;;;;;;;4995234;28;20700;-95
2021/10/11 17:34:56;;;;;;;3.83;3.53;;;;;;;;;;4994806;28;20200;-93
2021/10/11 17:37:23;;;;;;;3.80;3.50;;;;;;;;;;4994562;28;20200;-93
2021/10/11 17:39:50;;;;;;;3.87;3.53;;;;;;;;;;4995054;28;20736;-94
2021/10/11 17:42:18;;;;;;;3.77;3.47;;;;;;;;;;4994556;28;20197;-94
2021/10/11 17:44:45;;;;;;;4.20;3.80;;;;;;;;;;4993624;28;20207;-95
2021/10/11 17:47:14;;;;;;;4.37;4.07;;;;;;;;;;4995202;28;20580;-94
2021/10/11 17:49:45;;;;;;;6.27;5.67;;;;;;;;;;4994698;28;20203;-93
2021/10/11 17:52:13;;;;;;;5.63;5.23;;;;;;;;;;4994807;28;20217;-93
2021/10/11 17:54:41;;;;;;;3.90;3.60;;;;;;;;;;4994518;28;20255;-94
2021/10/11 17:57:08;;;;;;;4.50;4.20;;;;;;;;;;4994400;28;20282;-94
2021/10/11 17:59:35;;;;;;;4.80;4.40;;;;;;;;;;4994415;28;20657;-94
2021/10/11 18:02:03;;;;;;;4.80;4.40;;;;;;;;;;4994477;28;20279;-93
2021/10/11 18:04:32;;;;;;;5.37;4.97;;;;;;;;;;4994297;28;20200;-92
2021/10/11 18:06:59;;;;;;;4.60;4.20;;;;;;;;;;4994544;28;20287;-94
2021/10/11 18:09:26;;;;;;;5.20;4.80;;;;;;;;;;4994046;28;20258;-94
2021/10/11 18:11:54;;;;;;;5.03;4.63;;;;;;;;;;4994464;28;20203;-93
2021/10/11 18:14:21;;;;;;;5.53;5.13;;;;;;;;;;4993875;28;20232;-92